createdAt,value
2018-09-28T00:00:29.288Z,21.62
2018-09-28T00:01:29.242Z,21.71
2018-09-28T00:02:29.202Z,21.64
2018-09-28T00:03:29.153Z,21.64
2018-09-28T00:04:29.105Z,21.65
2018-09-28T00:05:29.059Z,21.69
2018-09-28T00:06:29.014Z,21.72
2018-09-28T00:07:29.019Z,21.71
2018-09-28T00:08:28.921Z,21.65
2018-09-28T00:09:28.876Z,21.65
2018-09-28T00:10:28.833Z,21.69
2018-09-28T00:11:28.792Z,21.67
2018-09-28T00:12:28.738Z,21.61
2018-09-28T00:13:28.692Z,21.58
2018-09-28T00:14:28.647Z,21.68
2018-09-28T00:15:28.602Z,21.64
2018-09-28T00:16:28.554Z,21.64
2018-09-28T00:17:28.509Z,21.58
2018-09-28T00:18:28.464Z,21.67
2018-09-28T00:19:28.418Z,21.62
2018-09-28T00:20:28.378Z,21.64
2018-09-28T00:21:28.326Z,21.61
2018-09-28T00:22:28.280Z,21.65
2018-09-28T00:23:28.234Z,21.64
2018-09-28T00:24:28.189Z,21.58
2018-09-28T00:25:28.142Z,21.64
2018-09-28T00:26:28.101Z,21.62
2018-09-28T00:27:28.051Z,21.69
2018-09-28T00:28:28.005Z,21.64
2018-09-28T00:29:27.959Z,21.62
2018-09-28T00:30:27.915Z,21.62
2018-09-28T00:31:27.868Z,21.65
2018-09-28T00:32:27.827Z,21.62
2018-09-28T00:33:27.782Z,21.64
2018-09-28T00:34:27.732Z,21.64
2018-09-28T00:35:27.684Z,21.62
2018-09-28T00:36:27.639Z,21.65
2018-09-28T00:37:27.592Z,21.61
2018-09-28T00:38:27.553Z,21.69
2018-09-28T00:39:27.501Z,21.65
2018-09-28T00:40:27.454Z,21.61
2018-09-28T00:41:27.412Z,21.62
2018-09-28T00:42:27.364Z,21.62
2018-09-28T00:43:27.318Z,21.58
2018-09-28T00:44:27.271Z,21.54
2018-09-28T00:45:27.226Z,21.61
2018-09-28T00:46:27.180Z,21.58
2018-09-28T00:47:27.133Z,21.61
2018-09-28T00:48:27.089Z,21.59
2018-09-28T00:49:27.041Z,21.59
2018-09-28T00:50:26.997Z,21.61
2018-09-28T00:51:26.950Z,21.54
2018-09-28T00:52:26.905Z,21.53
2018-09-28T00:53:26.859Z,21.56
2018-09-28T00:54:26.813Z,21.56
2018-09-28T00:55:26.767Z,21.47
2018-09-28T00:56:26.721Z,21.49
2018-09-28T00:57:26.725Z,21.62
2018-09-28T00:58:26.630Z,21.64
2018-09-28T00:59:26.583Z,21.46
2018-09-28T01:00:26.537Z,21.59
2018-09-28T01:01:26.492Z,21.54
2018-09-28T01:02:26.446Z,21.49
2018-09-28T01:03:26.399Z,21.56
2018-09-28T01:04:26.355Z,21.56
2018-09-28T01:05:26.315Z,21.49
2018-09-28T01:06:26.262Z,21.49
2018-09-28T01:07:26.216Z,21.49
2018-09-28T01:08:26.171Z,21.52
2018-09-28T01:09:26.125Z,21.53
2018-09-28T01:10:26.079Z,21.49
2018-09-28T01:11:26.033Z,21.50
2018-09-28T01:12:25.986Z,21.50
2018-09-28T01:13:25.942Z,21.50
2018-09-28T01:14:25.896Z,21.50
2018-09-28T01:15:25.849Z,21.53
2018-09-28T01:16:25.803Z,21.50
2018-09-28T01:17:25.759Z,21.53
2018-09-28T01:18:25.712Z,21.50
2018-09-28T01:19:25.665Z,21.53
2018-09-28T01:20:25.620Z,21.59
2018-09-28T01:21:25.577Z,21.49
2018-09-28T01:22:25.529Z,21.49
2018-09-28T01:23:25.482Z,21.50
2018-09-28T01:24:25.436Z,21.52
2018-09-28T01:25:25.391Z,21.52
2018-09-28T01:26:25.345Z,21.53
2018-09-28T01:27:25.299Z,21.52
2018-09-28T01:28:25.569Z,21.58
2018-09-28T01:29:25.527Z,21.59
2018-09-28T01:30:25.478Z,21.59
2018-09-28T01:31:25.431Z,21.53
2018-09-28T01:32:25.070Z,21.49
2018-09-28T01:33:25.023Z,21.49
2018-09-28T01:34:24.980Z,21.49
2018-09-28T01:35:24.931Z,21.50
2018-09-28T01:36:24.886Z,21.47
2018-09-28T01:37:24.844Z,21.49
2018-09-28T01:38:24.794Z,21.53
2018-09-28T01:39:24.747Z,21.46
2018-09-28T01:40:24.702Z,21.52
2018-09-28T01:41:24.657Z,21.49
2018-09-28T01:42:24.612Z,21.50
2018-09-28T01:43:24.564Z,21.52
2018-09-28T01:44:24.518Z,21.62
2018-09-28T01:45:24.473Z,21.53
2018-09-28T01:46:24.426Z,21.49
2018-09-28T01:47:24.380Z,21.58
2018-09-28T01:48:24.344Z,21.52
2018-09-28T01:49:24.289Z,21.53
2018-09-28T01:50:24.243Z,21.53
2018-09-28T01:51:24.197Z,21.50
2018-09-28T01:52:24.151Z,21.50
2018-09-28T01:53:24.105Z,21.50
2018-09-28T01:54:24.060Z,21.50
2018-09-28T01:55:24.013Z,21.50
2018-09-28T01:56:23.967Z,21.54
2018-09-28T01:57:23.923Z,21.49
2018-09-28T01:58:23.876Z,21.56
2018-09-28T01:59:23.832Z,21.52
2018-09-28T02:00:23.784Z,21.52
2018-09-28T02:01:23.738Z,21.50
2018-09-28T02:02:23.692Z,21.52
2018-09-28T02:03:23.646Z,21.52
2018-09-28T02:04:23.600Z,21.50
2018-09-28T02:05:23.555Z,21.52
2018-09-28T02:06:23.509Z,21.49
2018-09-28T02:07:23.462Z,21.49
2018-09-28T02:08:23.416Z,21.53
2018-09-28T02:09:23.370Z,21.53
2018-09-28T02:10:23.328Z,21.49
2018-09-28T02:11:23.278Z,21.50
2018-09-28T02:12:23.299Z,21.50
2018-09-28T02:13:23.187Z,21.52
2018-09-28T02:14:23.141Z,21.50
2018-09-28T02:15:23.096Z,21.52
2018-09-28T02:16:23.050Z,21.52
2018-09-28T02:17:23.026Z,21.52
2018-09-28T02:18:22.958Z,21.50
2018-09-28T02:19:22.911Z,21.50
2018-09-28T02:20:22.868Z,21.49
2018-09-28T02:21:22.820Z,21.46
2018-09-28T02:22:22.780Z,21.50
2018-09-28T02:23:22.727Z,21.44
2018-09-28T02:24:22.681Z,21.49
2018-09-28T02:25:22.637Z,21.52
2018-09-28T02:26:22.591Z,21.50
2018-09-28T02:27:22.544Z,21.46
2018-09-28T02:28:22.498Z,21.42
2018-09-28T02:29:22.453Z,21.56
2018-09-28T02:30:22.407Z,21.50
2018-09-28T02:31:22.360Z,21.56
2018-09-28T02:32:22.317Z,21.50
2018-09-28T02:33:22.270Z,21.56
2018-09-28T02:34:22.223Z,21.49
2018-09-28T02:35:22.177Z,21.52
2018-09-28T02:36:22.131Z,21.53
2018-09-28T02:37:22.085Z,21.46
2018-09-28T02:38:22.045Z,21.50
2018-09-28T02:39:21.993Z,21.52
2018-09-28T02:40:21.947Z,21.53
2018-09-28T02:41:21.902Z,21.42
2018-09-28T02:42:21.856Z,21.49
2018-09-28T02:43:21.809Z,21.52
2018-09-28T02:44:21.763Z,21.42
2018-09-28T02:45:21.719Z,21.54
2018-09-28T02:46:21.673Z,21.50
2018-09-28T02:47:21.626Z,21.52
2018-09-28T02:48:21.580Z,21.46
2018-09-28T02:49:21.535Z,21.46
2018-09-28T02:50:21.489Z,21.56
2018-09-28T02:51:21.442Z,21.50
2018-09-28T02:52:21.397Z,21.52
2018-09-28T02:53:21.351Z,21.54
2018-09-28T02:54:21.306Z,21.47
2018-09-28T02:55:21.258Z,21.50
2018-09-28T02:56:21.214Z,21.43
2018-09-28T02:57:21.177Z,21.42
2018-09-28T02:58:21.123Z,21.43
2018-09-28T02:59:21.075Z,21.43
2018-09-28T03:00:21.030Z,21.46
2018-09-28T03:01:20.984Z,21.44
2018-09-28T03:02:20.938Z,21.44
2018-09-28T03:03:20.891Z,21.50
2018-09-28T03:04:20.850Z,21.42
2018-09-28T03:05:20.800Z,21.43
2018-09-28T03:06:20.824Z,21.44
2018-09-28T03:07:20.708Z,21.49
2018-09-28T03:08:20.662Z,21.47
2018-09-28T03:09:20.617Z,21.53
2018-09-28T03:10:20.571Z,21.53
2018-09-28T03:11:20.525Z,21.46
2018-09-28T03:12:20.479Z,21.44
2018-09-28T03:13:20.433Z,21.46
2018-09-28T03:14:20.387Z,21.38
2018-09-28T03:15:20.341Z,21.47
2018-09-28T03:16:20.296Z,21.44
2018-09-28T03:17:20.250Z,21.52
2018-09-28T03:18:20.211Z,21.50
2018-09-28T03:19:20.158Z,21.40
2018-09-28T03:20:20.114Z,21.43
2018-09-28T03:21:20.067Z,21.46
2018-09-28T03:22:20.021Z,21.58
2018-09-28T03:23:19.973Z,21.46
2018-09-28T03:24:19.929Z,21.43
2018-09-28T03:25:19.888Z,21.43
2018-09-28T03:26:19.837Z,21.53
2018-09-28T03:27:19.794Z,21.43
2018-09-28T03:28:19.745Z,21.47
2018-09-28T03:29:19.699Z,21.43
2018-09-28T03:30:19.654Z,21.44
2018-09-28T03:31:19.607Z,21.40
2018-09-28T03:32:19.564Z,21.50
2018-09-28T03:33:19.515Z,21.43
2018-09-28T03:34:19.470Z,21.40
2018-09-28T03:35:19.424Z,21.42
2018-09-28T03:36:19.377Z,21.44
2018-09-28T03:37:19.341Z,21.47
2018-09-28T03:38:19.286Z,21.47
2018-09-28T03:39:19.240Z,21.38
2018-09-28T03:40:19.194Z,21.37
2018-09-28T03:41:19.149Z,21.46
2018-09-28T03:42:19.104Z,21.54
2018-09-28T03:43:19.056Z,21.49
2018-09-28T03:44:19.010Z,21.44
2018-09-28T03:45:18.965Z,21.38
2018-09-28T03:46:18.924Z,21.49
2018-09-28T03:47:18.874Z,21.43
2018-09-28T03:48:18.826Z,21.49
2018-09-28T03:49:18.781Z,21.50
2018-09-28T03:50:18.735Z,21.47
2018-09-28T03:51:18.692Z,21.44
2018-09-28T03:52:18.642Z,21.43
2018-09-28T03:53:18.597Z,21.43
2018-09-28T03:54:18.552Z,21.52
2018-09-28T03:55:18.504Z,21.34
2018-09-28T03:56:18.459Z,21.38
2018-09-28T03:57:18.413Z,21.40
2018-09-28T03:58:18.368Z,21.40
2018-09-28T03:59:18.323Z,21.43
2018-09-28T04:00:18.278Z,21.40
2018-09-28T04:01:18.230Z,21.42
2018-09-28T04:02:18.185Z,21.42
2018-09-28T04:03:18.138Z,21.40
2018-09-28T04:04:18.092Z,21.43
2018-09-28T04:05:18.049Z,21.44
2018-09-28T04:06:18.000Z,21.38
2018-09-28T04:07:17.954Z,21.40
2018-09-28T04:08:18.010Z,21.28
2018-09-28T04:09:17.862Z,21.49
2018-09-28T04:10:17.816Z,21.37
2018-09-28T04:11:17.769Z,21.42
2018-09-28T04:12:17.724Z,21.46
2018-09-28T04:13:17.678Z,21.37
2018-09-28T04:14:17.632Z,21.37
2018-09-28T04:15:17.660Z,21.44
2018-09-28T04:16:17.541Z,21.35
2018-09-28T04:17:17.495Z,21.42
2018-09-28T04:18:17.448Z,21.38
2018-09-28T04:19:17.402Z,21.40
2018-09-28T04:20:17.356Z,21.37
2018-09-28T04:21:17.313Z,21.52
2018-09-28T04:22:17.265Z,21.32
2018-09-28T04:23:17.219Z,21.42
2018-09-28T04:24:17.173Z,21.31
2018-09-28T04:25:17.127Z,21.43
2018-09-28T04:26:17.082Z,21.44
2018-09-28T04:27:17.035Z,21.40
2018-09-28T04:28:16.990Z,21.37
2018-09-28T04:29:16.942Z,21.38
2018-09-28T04:30:16.897Z,21.43
2018-09-28T04:31:16.851Z,21.42
2018-09-28T04:32:16.805Z,21.35
2018-09-28T04:33:16.759Z,21.37
2018-09-28T04:34:16.714Z,21.44
2018-09-28T04:35:16.666Z,21.37
2018-09-28T04:36:16.621Z,21.37
2018-09-28T04:37:16.576Z,21.34
2018-09-28T04:38:16.529Z,21.40
2018-09-28T04:39:16.487Z,21.38
2018-09-28T04:40:16.437Z,21.38
2018-09-28T04:41:16.392Z,21.38
2018-09-28T04:42:16.345Z,21.37
2018-09-28T04:43:16.298Z,21.28
2018-09-28T04:44:16.259Z,21.28
2018-09-28T04:45:16.259Z,21.42
2018-09-28T04:46:16.161Z,21.38
2018-09-28T04:47:16.114Z,21.42
2018-09-28T04:48:16.069Z,21.42
2018-09-28T04:49:16.023Z,21.42
2018-09-28T04:50:15.979Z,21.47
2018-09-28T04:51:15.931Z,21.43
2018-09-28T04:52:15.885Z,21.35
2018-09-28T04:53:15.840Z,21.37
2018-09-28T04:54:15.793Z,21.32
2018-09-28T04:55:15.747Z,21.40
2018-09-28T04:56:15.701Z,21.40
2018-09-28T04:57:15.655Z,21.37
2018-09-28T04:58:15.610Z,21.43
2018-09-28T04:59:15.563Z,21.42
2018-09-28T05:00:15.517Z,21.38
2018-09-28T05:01:15.472Z,21.31
2018-09-28T05:02:15.426Z,21.32
2018-09-28T05:03:15.379Z,21.28
2018-09-28T05:04:15.333Z,21.38
2018-09-28T05:05:15.288Z,21.35
2018-09-28T05:06:15.242Z,21.43
2018-09-28T05:07:15.195Z,21.35
2018-09-28T05:08:15.150Z,21.31
2018-09-28T05:09:15.107Z,21.35
2018-09-28T05:10:15.058Z,21.31
2018-09-28T05:11:15.012Z,21.35
2018-09-28T05:12:14.966Z,21.42
2018-09-28T05:13:14.975Z,21.31
2018-09-28T05:14:14.874Z,21.46
2018-09-28T05:15:14.828Z,21.38
2018-09-28T05:16:14.782Z,21.42
2018-09-28T05:17:14.736Z,21.42
2018-09-28T05:18:14.691Z,21.43
2018-09-28T05:19:14.644Z,21.40
2018-09-28T05:20:14.602Z,21.46
2018-09-28T05:21:14.552Z,21.46
2018-09-28T05:22:14.507Z,21.43
2018-09-28T05:23:14.459Z,21.29
2018-09-28T05:24:14.420Z,21.32
2018-09-28T05:25:14.390Z,21.40
2018-09-28T05:26:14.323Z,21.46
2018-09-28T05:27:14.276Z,21.43
2018-09-28T05:28:14.231Z,21.46
2018-09-28T05:29:14.184Z,21.38
2018-09-28T05:30:14.139Z,21.35
2018-09-28T05:31:14.140Z,21.31
2018-09-28T05:32:14.171Z,21.28
2018-09-28T05:33:14.000Z,21.34
2018-09-28T05:34:13.955Z,21.31
2018-09-28T05:35:13.908Z,21.37
2018-09-28T05:36:13.863Z,21.38
2018-09-28T05:37:13.880Z,21.32
2018-09-28T05:38:13.771Z,21.34
2018-09-28T05:39:13.724Z,21.37
2018-09-28T05:40:13.678Z,21.31
2018-09-28T05:41:13.632Z,21.32
2018-09-28T05:42:13.587Z,21.31
2018-09-28T05:43:13.540Z,21.29
2018-09-28T05:44:13.494Z,21.28
2018-09-28T05:45:13.452Z,21.37
2018-09-28T05:46:13.411Z,21.35
2018-09-28T05:47:13.357Z,21.38
2018-09-28T05:48:13.312Z,21.37
2018-09-28T05:49:13.266Z,21.28
2018-09-28T05:50:13.219Z,21.38
2018-09-28T05:51:13.176Z,21.42
2018-09-28T05:52:13.126Z,21.37
2018-09-28T05:53:13.080Z,21.42
2018-09-28T05:54:13.035Z,21.35
2018-09-28T05:55:12.988Z,21.35
2018-09-28T05:56:12.942Z,21.35
2018-09-28T05:57:12.896Z,21.29
2018-09-28T05:58:12.851Z,21.28
2018-09-28T05:59:12.803Z,21.34
2018-09-28T06:00:12.769Z,21.35
2018-09-28T06:01:13.028Z,21.35
2018-09-28T06:02:12.666Z,21.31
2018-09-28T06:03:12.620Z,21.35
2018-09-28T06:04:12.581Z,21.34
2018-09-28T06:05:12.529Z,21.40
2018-09-28T06:06:12.482Z,21.29
2018-09-28T06:07:12.437Z,21.37
2018-09-28T06:08:12.389Z,21.35
2018-09-28T06:09:12.344Z,21.40
2018-09-28T06:10:12.348Z,21.31
2018-09-28T06:11:12.250Z,21.28
2018-09-28T06:12:12.205Z,21.34
2018-09-28T06:13:12.160Z,21.40
2018-09-28T06:14:12.122Z,21.38
2018-09-28T06:15:12.071Z,21.37
2018-09-28T06:16:12.021Z,21.37
2018-09-28T06:17:11.977Z,21.31
2018-09-28T06:18:11.929Z,21.35
2018-09-28T06:19:11.888Z,21.32
2018-09-28T06:20:11.835Z,21.38
2018-09-28T06:21:11.791Z,21.31
2018-09-28T06:22:11.745Z,21.10
2018-09-28T06:23:11.701Z,20.95
2018-09-28T06:24:11.710Z,20.84
2018-09-28T06:25:11.607Z,20.74
2018-09-28T06:26:11.560Z,20.51
2018-09-28T06:27:11.514Z,20.48
2018-09-28T06:28:11.468Z,20.32
2018-09-28T06:29:11.422Z,20.28
2018-09-28T06:30:11.434Z,20.13
2018-09-28T06:31:11.329Z,20.11
2018-09-28T06:32:11.283Z,20.13
2018-09-28T06:33:11.237Z,20.03
2018-09-28T06:34:11.191Z,20.06
2018-09-28T06:35:11.146Z,19.94
2018-09-28T06:36:11.161Z,19.99
2018-09-28T06:37:11.056Z,19.92
2018-09-28T06:38:11.012Z,19.80
2018-09-28T06:39:10.959Z,19.80
2018-09-28T06:40:10.920Z,19.80
2018-09-28T06:41:10.868Z,19.83
2018-09-28T06:42:10.847Z,19.84
2018-09-28T06:43:10.775Z,19.81
2018-09-28T06:44:10.728Z,19.80
2018-09-28T06:45:10.683Z,19.77
2018-09-28T06:46:10.643Z,19.81
2018-09-28T06:47:10.592Z,19.73
2018-09-28T06:48:10.570Z,19.71
2018-09-28T06:49:10.497Z,19.68
2018-09-28T06:50:10.453Z,19.61
2018-09-28T06:51:10.451Z,19.56
2018-09-28T06:52:10.362Z,19.68
2018-09-28T06:53:10.313Z,19.62
2018-09-28T06:54:10.269Z,19.56
2018-09-28T06:55:10.219Z,19.62
2018-09-28T06:56:10.173Z,19.68
2018-09-28T06:57:10.127Z,19.78
2018-09-28T06:58:10.108Z,19.86
2018-09-28T06:59:10.035Z,19.94
2018-09-28T07:00:09.989Z,19.94
2018-09-28T07:01:09.941Z,19.96
2018-09-28T07:02:09.895Z,19.99
2018-09-28T07:03:09.850Z,20.16
2018-09-28T07:04:09.912Z,20.29
2018-09-28T07:05:09.759Z,20.39
2018-09-28T07:06:09.729Z,20.41
2018-09-28T07:07:09.663Z,20.47
2018-09-28T07:08:09.618Z,20.43
2018-09-28T07:09:09.572Z,20.50
2018-09-28T07:10:09.526Z,20.59
2018-09-28T07:11:09.481Z,20.57
2018-09-28T07:12:09.460Z,20.55
2018-09-28T07:13:09.389Z,20.64
2018-09-28T07:14:09.342Z,20.76
2018-09-28T07:15:09.295Z,20.70
2018-09-28T07:16:09.282Z,20.82
2018-09-28T07:17:09.205Z,20.76
2018-09-28T07:18:09.220Z,20.82
2018-09-28T07:19:09.112Z,20.74
2018-09-28T07:20:09.080Z,20.74
2018-09-28T07:21:09.023Z,20.84
2018-09-28T07:22:08.977Z,20.87
2018-09-28T07:23:08.931Z,20.94
2018-09-28T07:24:08.899Z,21.01
2018-09-28T07:25:08.873Z,20.92
2018-09-28T07:26:08.795Z,21.01
2018-09-28T07:27:08.748Z,21.01
2018-09-28T07:28:08.708Z,21.07
2018-09-28T07:29:08.658Z,21.14
2018-09-28T07:30:08.673Z,21.13
2018-09-28T07:31:08.567Z,21.13
2018-09-28T07:32:08.526Z,21.06
2018-09-28T07:33:08.477Z,21.06
2018-09-28T07:34:08.433Z,21.22
2018-09-28T07:35:08.386Z,21.19
2018-09-28T07:36:08.538Z,21.22
2018-09-28T07:37:08.401Z,21.16
2018-09-28T07:38:08.251Z,21.17
2018-09-28T07:39:08.206Z,21.22
2018-09-28T07:40:08.162Z,21.28
2018-09-28T07:41:08.116Z,21.37
2018-09-28T07:42:08.083Z,21.46
2018-09-28T07:43:08.026Z,21.49
2018-09-28T07:44:07.981Z,21.50
2018-09-28T07:45:07.936Z,21.52
2018-09-28T07:46:07.892Z,21.61
2018-09-28T07:47:07.847Z,21.54
2018-09-28T07:48:07.808Z,21.53
2018-09-28T07:49:07.811Z,21.52
2018-09-28T07:50:07.722Z,21.54
2018-09-28T07:51:07.669Z,21.54
2018-09-28T07:52:07.625Z,21.54
2018-09-28T07:53:07.582Z,21.59
2018-09-28T07:54:07.537Z,21.61
2018-09-28T07:55:07.492Z,21.64
2018-09-28T07:56:07.449Z,21.59
2018-09-28T07:57:07.405Z,21.69
2018-09-28T07:58:07.360Z,21.65
2018-09-28T07:59:07.316Z,21.74
2018-09-28T08:00:07.272Z,21.69
2018-09-28T08:01:07.233Z,21.72
2018-09-28T08:02:07.186Z,21.61
2018-09-28T08:03:07.140Z,21.53
2018-09-28T08:04:07.097Z,21.46
2018-09-28T08:05:07.056Z,21.50
2018-09-28T08:06:07.009Z,21.42
2018-09-28T08:07:06.966Z,21.43
2018-09-28T08:08:06.926Z,21.52
2018-09-28T08:09:06.878Z,21.40
2018-09-28T08:10:06.836Z,21.37
2018-09-28T08:11:06.792Z,21.25
2018-09-28T08:12:06.749Z,21.29
2018-09-28T08:13:06.705Z,21.19
2018-09-28T08:14:06.662Z,21.27
2018-09-28T08:15:06.619Z,21.21
2018-09-28T08:16:06.573Z,21.13
2018-09-28T08:17:06.531Z,21.04
2018-09-28T08:18:06.490Z,20.99
2018-09-28T08:19:06.444Z,20.89
2018-09-28T08:20:06.399Z,20.95
2018-09-28T08:21:06.355Z,20.88
2018-09-28T08:22:06.310Z,20.95
2018-09-28T08:23:06.267Z,21.03
2018-09-28T08:24:06.224Z,21.10
2018-09-28T08:25:06.182Z,21.19
2018-09-28T08:26:06.146Z,21.14
2018-09-28T08:27:06.094Z,21.16
2018-09-28T08:28:06.048Z,21.17
2018-09-28T08:29:06.005Z,21.21
2018-09-28T08:30:05.965Z,21.25
2018-09-28T08:31:05.917Z,21.29
2018-09-28T08:32:05.878Z,21.19
2018-09-28T08:33:05.833Z,21.37
2018-09-28T08:34:05.790Z,21.35
2018-09-28T08:35:05.749Z,21.37
2018-09-28T08:36:05.704Z,21.42
2018-09-28T08:37:05.661Z,21.35
2018-09-28T08:38:05.623Z,21.46
2018-09-28T08:39:05.576Z,21.37
2018-09-28T08:40:05.536Z,21.38
2018-09-28T08:41:05.490Z,21.40
2018-09-28T08:42:05.450Z,21.35
2018-09-28T08:43:05.405Z,21.32
2018-09-28T08:44:05.363Z,21.34
2018-09-28T08:45:05.321Z,21.29
2018-09-28T08:46:05.287Z,21.32
2018-09-28T08:47:05.234Z,21.38
2018-09-28T08:48:05.190Z,21.53
2018-09-28T08:49:05.195Z,21.43
2018-09-28T08:50:05.105Z,21.52
2018-09-28T08:51:05.061Z,21.53
2018-09-28T08:52:05.017Z,21.53
2018-09-28T08:53:04.974Z,21.53
2018-09-28T08:54:04.931Z,21.54
2018-09-28T08:55:04.889Z,21.54
2018-09-28T08:56:04.842Z,21.52
2018-09-28T08:57:04.803Z,21.46
2018-09-28T08:58:04.755Z,21.44
2018-09-28T08:59:04.710Z,21.42
2018-09-28T09:00:04.666Z,21.44
2018-09-28T09:01:04.626Z,21.37
2018-09-28T09:02:04.594Z,21.35
2018-09-28T09:03:04.533Z,21.35
2018-09-28T09:04:04.489Z,21.21
2018-09-28T09:05:04.444Z,21.21
2018-09-28T09:06:04.400Z,21.17
2018-09-28T09:07:04.355Z,21.10
2018-09-28T09:08:04.310Z,21.10
2018-09-28T09:09:04.266Z,21.14
2018-09-28T09:10:04.225Z,21.17
2018-09-28T09:11:04.175Z,21.12
2018-09-28T09:12:04.131Z,21.09
2018-09-28T09:13:04.088Z,21.07
2018-09-28T09:14:04.042Z,21.07
2018-09-28T09:15:03.996Z,21.01
2018-09-28T09:16:03.952Z,21.01
2018-09-28T09:17:03.907Z,20.95
2018-09-28T09:18:03.964Z,20.95
2018-09-28T09:19:03.816Z,20.94
2018-09-28T09:20:03.771Z,20.82
2018-09-28T09:21:03.726Z,20.80
2018-09-28T09:22:03.681Z,20.82
2018-09-28T09:23:03.636Z,20.77
2018-09-28T09:24:03.680Z,20.72
2018-09-28T09:25:03.546Z,20.64
2018-09-28T09:26:03.500Z,20.66
2018-09-28T09:27:03.454Z,20.59
2018-09-28T09:28:03.409Z,20.61
2018-09-28T09:29:03.366Z,20.59
2018-09-28T09:30:03.391Z,20.61
2018-09-28T09:31:03.275Z,20.54
2018-09-28T09:32:03.234Z,20.66
2018-09-28T09:33:03.182Z,20.52
2018-09-28T09:34:03.136Z,20.66
2018-09-28T09:35:03.091Z,20.64
2018-09-28T09:36:03.045Z,20.69
2018-09-28T09:37:03.000Z,20.61
2018-09-28T09:38:02.955Z,20.58
2018-09-28T09:39:02.909Z,20.66
2018-09-28T09:40:02.865Z,20.59
2018-09-28T09:41:02.818Z,20.54
2018-09-28T09:42:02.771Z,20.51
2018-09-28T09:43:02.726Z,20.55
2018-09-28T09:44:02.681Z,20.54
2018-09-28T09:45:02.636Z,20.57
2018-09-28T09:46:02.597Z,20.70
2018-09-28T09:47:02.544Z,20.72
2018-09-28T09:48:02.498Z,20.70
2018-09-28T09:49:02.453Z,20.66
2018-09-28T09:50:02.409Z,20.72
2018-09-28T09:51:02.360Z,20.73
2018-09-28T09:52:02.316Z,20.73
2018-09-28T09:53:02.272Z,20.79
2018-09-28T09:54:02.225Z,20.67
2018-09-28T09:55:02.178Z,20.80
2018-09-28T09:56:02.138Z,20.73
2018-09-28T09:57:02.087Z,20.69
2018-09-28T09:58:02.109Z,20.69
2018-09-28T09:59:01.994Z,20.54
2018-09-28T10:00:01.949Z,20.54
2018-09-28T10:01:01.905Z,20.47
2018-09-28T10:02:01.859Z,20.54
2018-09-28T10:03:01.812Z,20.50
2018-09-28T10:04:01.767Z,20.50
2018-09-28T10:05:01.721Z,20.50
2018-09-28T10:06:01.678Z,20.50
2018-09-28T10:07:01.629Z,20.36
2018-09-28T10:08:01.585Z,20.33
2018-09-28T10:09:01.539Z,20.29
2018-09-28T10:10:01.496Z,20.39
2018-09-28T10:11:01.450Z,20.38
2018-09-28T10:12:01.401Z,20.35
2018-09-28T10:13:01.356Z,20.33
2018-09-28T10:14:01.311Z,20.36
2018-09-28T10:15:01.265Z,20.47
2018-09-28T10:16:01.217Z,20.35
2018-09-28T10:17:01.173Z,20.42
2018-09-28T10:18:01.126Z,20.32
2018-09-28T10:19:01.079Z,20.29
2018-09-28T10:20:01.035Z,20.23
2018-09-28T10:21:00.987Z,20.23
2018-09-28T10:22:00.943Z,20.20
2018-09-28T10:23:00.899Z,20.21
2018-09-28T10:24:00.854Z,20.21
2018-09-28T10:25:00.804Z,20.29
2018-09-28T10:26:00.811Z,20.20
2018-09-28T10:27:00.739Z,20.28
2018-09-28T10:28:00.793Z,20.28
2018-09-28T10:29:00.622Z,20.35
2018-09-28T10:30:00.579Z,20.26
2018-09-28T10:31:00.528Z,20.21
2018-09-28T10:32:00.483Z,20.17
2018-09-28T10:33:00.437Z,20.16
2018-09-28T10:34:00.391Z,20.23
2018-09-28T10:35:00.345Z,20.18
2018-09-28T10:36:00.303Z,20.18
2018-09-28T10:37:00.253Z,20.18
2018-09-28T10:38:00.207Z,20.16
2018-09-28T10:39:00.161Z,20.10
2018-09-28T10:40:00.116Z,20.16
2018-09-28T10:41:00.289Z,20.14
2018-09-28T10:42:00.030Z,20.16
2018-09-28T10:42:59.979Z,20.14
2018-09-28T10:43:59.930Z,20.16
2018-09-28T10:44:59.885Z,20.23
2018-09-28T10:45:59.839Z,20.28
2018-09-28T10:46:59.792Z,20.28
2018-09-28T10:47:59.746Z,20.24
2018-09-28T10:48:59.700Z,20.20
2018-09-28T10:49:59.656Z,20.14
2018-09-28T10:50:59.675Z,20.10
2018-09-28T10:51:59.698Z,20.10
2018-09-28T10:52:59.524Z,20.11
2018-09-28T10:53:59.471Z,20.08
2018-09-28T10:54:59.423Z,20.06
2018-09-28T10:55:59.379Z,20.08
2018-09-28T10:56:59.334Z,20.16
2018-09-28T10:57:59.287Z,20.18
2018-09-28T10:58:59.314Z,20.13
2018-09-28T10:59:59.194Z,20.14
2018-09-28T11:00:59.148Z,20.17
2018-09-28T11:01:59.103Z,20.14
2018-09-28T11:02:59.059Z,20.21
2018-09-28T11:03:59.009Z,20.23
2018-09-28T11:04:58.963Z,20.20
2018-09-28T11:05:58.918Z,20.21
2018-09-28T11:06:58.871Z,20.16
2018-09-28T11:07:58.825Z,20.16
2018-09-28T11:08:58.837Z,20.13
2018-09-28T11:09:58.733Z,20.10
2018-09-28T11:10:58.687Z,20.10
2018-09-28T11:11:58.641Z,20.10
2018-09-28T11:12:58.595Z,20.17
2018-09-28T11:13:58.550Z,20.18
2018-09-28T11:14:58.502Z,20.16
2018-09-28T11:15:58.455Z,20.17
2018-09-28T11:16:58.411Z,20.10
2018-09-28T11:17:58.365Z,20.03
2018-09-28T11:18:58.434Z,20.02
2018-09-28T11:19:58.272Z,20.10
2018-09-28T11:20:58.226Z,20.10
2018-09-28T11:21:58.181Z,20.11
2018-09-28T11:22:58.134Z,20.16
2018-09-28T11:23:58.092Z,20.16
2018-09-28T11:24:58.042Z,20.18
2018-09-28T11:25:57.999Z,20.10
2018-09-28T11:26:57.949Z,20.16
2018-09-28T11:27:57.904Z,20.06
2018-09-28T11:28:57.858Z,20.06
2018-09-28T11:29:57.812Z,20.06
2018-09-28T11:30:57.765Z,20.06
2018-09-28T11:31:57.720Z,20.11
2018-09-28T11:32:57.674Z,20.08
2018-09-28T11:33:57.628Z,20.08
2018-09-28T11:34:57.584Z,20.13
2018-09-28T11:35:57.535Z,20.10
2018-09-28T11:36:57.489Z,20.18
2018-09-28T11:37:57.444Z,20.21
2018-09-28T11:38:57.396Z,20.14
2018-09-28T11:39:57.351Z,20.16
2018-09-28T11:40:57.305Z,20.16
2018-09-28T11:41:57.259Z,20.17
2018-09-28T11:42:57.212Z,20.18
2018-09-28T11:43:57.166Z,20.17
2018-09-28T11:44:57.121Z,20.10
2018-09-28T11:45:57.074Z,20.16
2018-09-28T11:46:57.028Z,20.17
2018-09-28T11:47:56.983Z,20.20
2018-09-28T11:48:56.938Z,20.18
2018-09-28T11:49:56.891Z,20.24
2018-09-28T11:50:56.844Z,20.18
2018-09-28T11:51:56.800Z,20.23
2018-09-28T11:52:56.754Z,20.24
2018-09-28T11:53:56.707Z,20.18
2018-09-28T11:54:56.659Z,20.23
2018-09-28T11:55:56.613Z,20.17
2018-09-28T11:56:56.568Z,20.21
2018-09-28T11:57:56.522Z,20.24
2018-09-28T11:58:56.477Z,20.24
2018-09-28T11:59:56.460Z,20.18
2018-09-28T12:00:56.384Z,20.29
2018-09-28T12:01:56.339Z,20.24
2018-09-28T12:02:56.292Z,20.24
2018-09-28T12:03:56.246Z,20.26
2018-09-28T12:04:56.209Z,20.31
2018-09-28T12:05:56.155Z,20.33
2018-09-28T12:06:56.208Z,20.31
2018-09-28T12:07:56.062Z,20.28
2018-09-28T12:08:56.016Z,20.23
2018-09-28T12:09:55.970Z,20.24
2018-09-28T12:10:55.966Z,20.18
2018-09-28T12:11:55.877Z,20.28
2018-09-28T12:12:55.831Z,20.26
2018-09-28T12:13:55.788Z,20.24
2018-09-28T12:14:55.793Z,20.24
2018-09-28T12:15:55.693Z,20.23
2018-09-28T12:16:55.647Z,20.23
2018-09-28T12:17:55.603Z,20.31
2018-09-28T12:18:55.556Z,20.33
2018-09-28T12:19:55.509Z,20.32
2018-09-28T12:20:55.463Z,20.31
2018-09-28T12:21:55.418Z,20.31
2018-09-28T12:22:55.372Z,20.32
2018-09-28T12:23:55.375Z,20.31
2018-09-28T12:24:55.280Z,20.28
2018-09-28T12:25:55.233Z,20.32
2018-09-28T12:26:55.190Z,20.33
2018-09-28T12:27:55.143Z,20.28
2018-09-28T12:28:55.100Z,20.23
2018-09-28T12:29:55.056Z,20.26
2018-09-28T12:30:55.007Z,20.13
2018-09-28T12:31:54.957Z,20.13
2018-09-28T12:32:54.911Z,20.18
2018-09-28T12:33:54.866Z,20.18
2018-09-28T12:34:54.819Z,20.21
2018-09-28T12:35:54.773Z,20.21
2018-09-28T12:36:54.727Z,20.29
2018-09-28T12:37:54.681Z,20.23
2018-09-28T12:38:54.655Z,20.21
2018-09-28T12:39:54.685Z,20.26
2018-09-28T12:40:54.543Z,20.32
2018-09-28T12:41:54.497Z,20.31
2018-09-28T12:42:54.450Z,20.18
2018-09-28T12:43:54.404Z,20.23
2018-09-28T12:44:54.479Z,20.17
2018-09-28T12:45:54.313Z,20.20
2018-09-28T12:46:54.267Z,20.17
2018-09-28T12:47:54.219Z,20.23
2018-09-28T12:48:54.174Z,20.17
2018-09-28T12:49:54.128Z,20.16
2018-09-28T12:50:54.081Z,20.18
2018-09-28T12:51:54.035Z,20.23